sensor_id;sensor_type;location;lat;lon;timestamp;P1;P2;P0
74426;PMS7003;62859;53.906;27.430;2023-12-04T00:01:42;22.7;20.3;16.7
74426;PMS7003;62859;53.906;27.430;2023-12-04T00:06:52;9.7;8.7;5.3
74426;PMS7003;62859;53.906;27.430;2023-12-04T00:11:16;15.3;13.8;9
74426;PMS7003;62859;53.906;27.430;2023-12-04T00:16:36;11.7;9.3;5.7
74426;PMS7003;62859;53.906;27.430;2023-12-04T00:21:50;19;17.7;11
74426;PMS7003;62859;53.906;27.430;2023-12-04T00:26:54;10.7;9.7;7
74426;PMS7003;62859;53.906;27.430;2023-12-04T00:31:24;9.8;8.3;5.8
74426;PMS7003;62859;53.906;27.430;2023-12-04T00:36:18;18.3;16.3;12.3
74426;PMS7003;62859;53.906;27.430;2023-12-04T00:41:36;8.7;7.3;4.7
74426;PMS7003;62859;53.906;27.430;2023-12-04T00:46:16;11;9;5.7
74426;PMS7003;62859;53.906;27.430;2023-12-04T00:51:42;13.8;11;7.5
74426;PMS7003;62859;53.906;27.430;2023-12-04T00:56:52;13;11.7;8
74426;PMS7003;62859;53.906;27.430;2023-12-04T01:01:16;13.7;10.7;7.3
74426;PMS7003;62859;53.906;27.430;2023-12-04T01:06:40;12.5;9.8;6.8
74426;PMS7003;62859;53.906;27.430;2023-12-04T01:11:38;12.7;9.3;5.7
74426;PMS7003;62859;53.906;27.430;2023-12-04T01:16:52;9.3;9;6.7
74426;PMS7003;62859;53.906;27.430;2023-12-04T01:21:38;12;9;5
74426;PMS7003;62859;53.906;27.430;2023-12-04T01:26:16;10.3;9;5.5
74426;PMS7003;62859;53.906;27.430;2023-12-04T01:31:44;11;9.3;7
74426;PMS7003;62859;53.906;27.430;2023-12-04T01:36:50;9;8.7;5.7
74426;PMS7003;62859;53.906;27.430;2023-12-04T01:41:38;11.3;10;6.3
74426;PMS7003;62859;53.906;27.430;2023-12-04T01:46:54;11.3;8.8;6.8
74426;PMS7003;62859;53.906;27.430;2023-12-04T01:51:36;13;10;5.3
74426;PMS7003;62859;53.906;27.430;2023-12-04T01:56:32;15;9.3;5.3
74426;PMS7003;62859;53.906;27.430;2023-12-04T02:01:52;8;7.7;5.7
74426;PMS7003;62859;53.906;27.430;2023-12-04T02:06:54;10;8.3;5.3
74426;PMS7003;62859;53.906;27.430;2023-12-04T02:11:18;11;9.3;6.3
74426;PMS7003;62859;53.906;27.430;2023-12-04T02:16:26;8.7;6;4.7
74426;PMS7003;62859;53.906;27.430;2023-12-04T02:21:16;32.3;29.3;25
74426;PMS7003;62859;53.906;27.430;2023-12-04T02:26:31;34.3;32.3;26.5
74426;PMS7003;62859;53.906;27.430;2023-12-04T02:31:30;29;27;22.3
74426;PMS7003;62859;53.906;27.430;2023-12-04T02:36:54;33;30;25.3
74426;PMS7003;62859;53.906;27.430;2023-12-04T02:41:32;30.3;26.7;19
74426;PMS7003;62859;53.906;27.430;2023-12-04T02:46:32;22.8;20;16
74426;PMS7003;62859;53.906;27.430;2023-12-04T02:51:54;26.3;23.7;17.3
74426;PMS7003;62859;53.906;27.430;2023-12-04T02:56:26;32.7;32;25
74426;PMS7003;62859;53.906;27.430;2023-12-04T03:01:26;25.5;24.3;20.8
74426;PMS7003;62859;53.906;27.430;2023-12-04T03:06:34;22;20.3;16
74426;PMS7003;62859;53.906;27.430;2023-12-04T03:11:39;20.7;20;15.3
74426;PMS7003;62859;53.906;27.430;2023-12-04T03:16:40;23.7;18.3;12.7
74426;PMS7003;62859;53.906;27.430;2023-12-04T03:21:54;17;14.5;9.5
74426;PMS7003;62859;53.906;27.430;2023-12-04T03:26:36;17;15.3;10.3
74426;PMS7003;62859;53.906;27.430;2023-12-04T03:31:38;15.3;15;10.3
74426;PMS7003;62859;53.906;27.430;2023-12-04T03:36:56;19.7;18.3;12
74426;PMS7003;62859;53.906;27.430;2023-12-04T03:41:50;23.5;22.8;19
74426;PMS7003;62859;53.906;27.430;2023-12-04T03:46:42;20.3;17.7;11.7
74426;PMS7003;62859;53.906;27.430;2023-12-04T03:51:30;21.3;19;11
74426;PMS7003;62859;53.906;27.430;2023-12-04T03:56:18;19.7;17.7;11.3
74426;PMS7003;62859;53.906;27.430;2023-12-04T04:01:18;22;19.5;14
74426;PMS7003;62859;53.906;27.430;2023-12-04T04:06:36;21.7;17.7;10.3
74426;PMS7003;62859;53.906;27.430;2023-12-04T04:11:18;16.3;14;9.3
74426;PMS7003;62859;53.906;27.430;2023-12-04T04:16:18;17.7;15.3;9.7
74426;PMS7003;62859;53.906;27.430;2023-12-04T04:21:18;20.5;17.5;9.5
74426;PMS7003;62859;53.906;27.430;2023-12-04T04:26:54;17.7;16;11.3
74426;PMS7003;62859;53.906;27.430;2023-12-04T04:31:54;17.7;17.3;11
74426;PMS7003;62859;53.906;27.430;2023-12-04T04:36:26;18.7;15.3;8.7
74426;PMS7003;62859;53.906;27.430;2023-12-04T04:41:18;18;16.3;10.3
74426;PMS7003;62859;53.906;27.430;2023-12-04T04:46:50;17;15;9.3
74426;PMS7003;62859;53.906;27.430;2023-12-04T04:51:38;15;13.7;10
74426;PMS7003;62859;53.906;27.430;2023-12-04T04:56:40;22.8;16.3;11.3
74426;PMS7003;62859;53.906;27.430;2023-12-04T05:01:52;22;19;12
74426;PMS7003;62859;53.906;27.430;2023-12-04T05:06:24;17.3;17;10
74426;PMS7003;62859;53.906;27.430;2023-12-04T05:11:36;19;15.7;9.7
74426;PMS7003;62859;53.906;27.430;2023-12-04T05:16:36;22.3;17.3;9.5
74426;PMS7003;62859;53.906;27.430;2023-12-04T05:21:48;21.7;19;13
74426;PMS7003;62859;53.906;27.430;2023-12-04T05:26:42;20.7;17.3;11
74426;PMS7003;62859;53.906;27.430;2023-12-04T05:31:30;17;15.7;10
74426;PMS7003;62859;53.906;27.430;2023-12-04T05:36:18;21;16.5;10
74426;PMS7003;62859;53.906;27.430;2023-12-04T05:41:42;20.3;17;11.3
74426;PMS7003;62859;53.906;27.430;2023-12-04T05:46:34;14.7;13.3;8.7
74426;PMS7003;62859;53.906;27.430;2023-12-04T05:51:26;16;14;9.7
74426;PMS7003;62859;53.906;27.430;2023-12-04T05:56:18;20.5;17.3;11.3
74426;PMS7003;62859;53.906;27.430;2023-12-04T06:01:40;18.7;16.7;10.7
74426;PMS7003;62859;53.906;27.430;2023-12-04T06:06:56;17.3;15.7;10.7
74426;PMS7003;62859;53.906;27.430;2023-12-04T06:11:52;18.3;16;9.3
74426;PMS7003;62859;53.906;27.430;2023-12-04T06:16:28;18.8;15.3;9.5
74426;PMS7003;62859;53.906;27.430;2023-12-04T06:21:40;19.3;16.3;10
74426;PMS7003;62859;53.906;27.430;2023-12-04T06:26:18;20.3;16.3;11.3
74426;PMS7003;62859;53.906;27.430;2023-12-04T06:31:50;16.7;14.7;9.7
74426;PMS7003;62859;53.906;27.430;2023-12-04T06:36:30;18.3;14.5;10
74426;PMS7003;62859;53.906;27.430;2023-12-04T06:41:52;17.3;14;9.7
74426;PMS7003;62859;53.906;27.430;2023-12-04T06:46:48;22.3;19.3;13
74426;PMS7003;62859;53.906;27.430;2023-12-04T06:51:18;15;13.5;9
74426;PMS7003;62859;53.906;27.430;2023-12-04T06:56:52;13;12;7.7
74426;PMS7003;62859;53.906;27.430;2023-12-04T07:01:28;13.7;12;8.3
74426;PMS7003;62859;53.906;27.430;2023-12-04T07:06:20;16.3;13.7;8
74426;PMS7003;62859;53.906;27.430;2023-12-04T07:11:30;24;20.5;15
74426;PMS7003;62859;53.906;27.430;2023-12-04T07:16:30;18;17.3;13
74426;PMS7003;62859;53.906;27.430;2023-12-04T07:21:36;24.3;20.7;13.7
74426;PMS7003;62859;53.906;27.430;2023-12-04T07:26:28;22.3;18.3;12.7
74426;PMS7003;62859;53.906;27.430;2023-12-04T07:31:20;20.8;18.8;14.8
74426;PMS7003;62859;53.906;27.430;2023-12-04T07:36:30;18.3;15;12.3
74426;PMS7003;62859;53.906;27.430;2023-12-04T07:41:28;24.7;19.3;13
74426;PMS7003;62859;53.906;27.430;2023-12-04T07:46:52;10.3;9.3;6.7
74426;PMS7003;62859;53.906;27.430;2023-12-04T07:51:54;13.5;11.3;7.5
74426;PMS7003;62859;53.906;27.430;2023-12-04T07:56:26;14;12;8
74426;PMS7003;62859;53.906;27.430;2023-12-04T08:01:40;17;13.7;7.7
74426;PMS7003;62859;53.906;27.430;2023-12-04T08:06:52;10.7;10.7;7
74426;PMS7003;62859;53.906;27.430;2023-12-04T08:11:20;13.8;11.8;8.5
74426;PMS7003;62859;53.906;27.430;2023-12-04T08:16:38;16.7;15.3;10.7
74426;PMS7003;62859;53.906;27.430;2023-12-04T08:21:34;19.7;16.7;11.3
74426;PMS7003;62859;53.906;27.430;2023-12-04T08:26:32;15.7;13.7;9
74426;PMS7003;62859;53.906;27.430;2023-12-04T08:31:50;17.8;13.3;10
74426;PMS7003;62859;53.906;27.430;2023-12-04T08:36:54;12.7;10.7;7
74426;PMS7003;62859;53.906;27.430;2023-12-04T08:41:54;11;9.7;6.7
74426;PMS7003;62859;53.906;27.430;2023-12-04T08:46:41;13.3;11.8;8
74426;PMS7003;62859;53.906;27.430;2023-12-04T08:51:40;17;13.3;8.7
74426;PMS7003;62859;53.906;27.430;2023-12-04T08:56:54;12.3;9.3;5.7
74426;PMS7003;62859;53.906;27.430;2023-12-04T09:01:40;18;13.7;10.3
74426;PMS7003;62859;53.906;27.430;2023-12-04T09:06:28;16.5;15.3;10
74426;PMS7003;62859;53.906;27.430;2023-12-04T09:11:18;14;12.3;8.3
74426;PMS7003;62859;53.906;27.430;2023-12-04T09:16:18;16;13.3;11
74426;PMS7003;62859;53.906;27.430;2023-12-04T09:21:18;16.3;15;8.7
74426;PMS7003;62859;53.906;27.430;2023-12-04T09:26:54;17.5;16.8;13
74426;PMS7003;62859;53.906;27.430;2023-12-04T09:31:54;21.3;19.7;15.3
74426;PMS7003;62859;53.906;27.430;2023-12-04T09:36:20;14.3;12.7;11.3
74426;PMS7003;62859;53.906;27.430;2023-12-04T09:41:40;20.3;17;14.7
74426;PMS7003;62859;53.906;27.430;2023-12-04T09:46:28;23.5;19.8;16.5
74426;PMS7003;62859;53.906;27.430;2023-12-04T09:51:50;15.7;14;9
74426;PMS7003;62859;53.906;27.430;2023-12-04T09:56:20;15.3;14.3;10
74426;PMS7003;62859;53.906;27.430;2023-12-04T10:01:24;19.3;17.7;14
74426;PMS7003;62859;53.906;27.430;2023-12-04T10:06:34;15.8;13.5;11.3
74426;PMS7003;62859;53.906;27.430;2023-12-04T10:11:50;17.7;15.7;11
74426;PMS7003;62859;53.906;27.430;2023-12-04T10:16:56;18.7;16.3;13.3
74426;PMS7003;62859;53.906;27.430;2023-12-04T10:21:58;18;15.7;13
74426;PMS7003;62859;53.906;27.430;2023-12-04T10:26:49;17.5;16.5;12.5
74426;PMS7003;62859;53.906;27.430;2023-12-04T10:31:42;19;15.7;13.3
74426;PMS7003;62859;53.906;27.430;2023-12-04T10:36:58;19;14.7;12.7
74426;PMS7003;62859;53.906;27.430;2023-12-04T10:41:18;21.5;17;14.3
74426;PMS7003;62859;53.906;27.430;2023-12-04T10:46:34;14.7;11.3;8.3
74426;PMS7003;62859;53.906;27.430;2023-12-04T10:51:18;13.3;13;9
74426;PMS7003;62859;53.906;27.430;2023-12-04T10:56:55;14;11.3;8.3
74426;PMS7003;62859;53.906;27.430;2023-12-04T11:01:18;17.3;15;10.8
74426;PMS7003;62859;53.906;27.430;2023-12-04T11:06:56;20.7;18.7;12.7
74426;PMS7003;62859;53.906;27.430;2023-12-04T11:11:56;15.7;15;10.3
74426;PMS7003;62859;53.906;27.430;2023-12-04T11:16:29;17.7;16;12
74426;PMS7003;62859;53.906;27.430;2023-12-04T11:21:45;18.3;16.8;13.5
74426;PMS7003;62859;53.906;27.430;2023-12-04T11:26:54;10.7;10;8.7
74426;PMS7003;62859;53.906;27.430;2023-12-04T11:31:20;16.3;13.3;9.3
74426;PMS7003;62859;53.906;27.430;2023-12-04T11:36:38;16.3;13.3;11
74426;PMS7003;62859;53.906;27.430;2023-12-04T11:41:34;15.5;14;10.3
74426;PMS7003;62859;53.906;27.430;2023-12-04T11:47:02;10;8.7;5.7
74426;PMS7003;62859;53.906;27.430;2023-12-04T11:51:52;16.3;15.7;12.7
74426;PMS7003;62859;53.906;27.430;2023-12-04T11:57:19;15;13.3;11.3
74426;PMS7003;62859;53.906;27.430;2023-12-04T12:01:54;10.8;8.5;6
74426;PMS7003;62859;53.906;27.430;2023-12-04T12:06:36;9;6.7;5
74426;PMS7003;62859;53.906;27.430;2023-12-04T12:11:40;20.3;18.3;15.7
74426;PMS7003;62859;53.906;27.430;2023-12-04T12:16:59;17.7;16.7;14.3
74426;PMS7003;62859;53.906;27.430;2023-12-04T12:21:56;14.8;14.8;13
74426;PMS7003;62859;53.906;27.430;2023-12-04T12:26:18;14;14;11.3
74426;PMS7003;62859;53.906;27.430;2023-12-04T12:31:28;12;10.7;8.7
74426;PMS7003;62859;53.906;27.430;2023-12-04T12:36:18;13;11.5;10.3
74426;PMS7003;62859;53.906;27.430;2023-12-04T12:41:18;15.3;14.3;11.7
74426;PMS7003;62859;53.906;27.430;2023-12-04T12:46:47;12.3;10.3;7.3
74426;PMS7003;62859;53.906;27.430;2023-12-04T12:51:59;14.3;12;10.7
74426;PMS7003;62859;53.906;27.430;2023-12-04T12:56:46;10.3;9.5;7
74426;PMS7003;62859;53.906;27.430;2023-12-04T13:01:34;13.3;12.3;10.3
74426;PMS7003;62859;53.906;27.430;2023-12-04T13:06:38;11.3;10.3;9.3
74426;PMS7003;62859;53.906;27.430;2023-12-04T13:11:56;10.7;10.3;9.7
74426;PMS7003;62859;53.906;27.430;2023-12-04T13:16:40;10;9.8;8.3
74426;PMS7003;62859;53.906;27.430;2023-12-04T13:21:36;10;8.3;7.3
74426;PMS7003;62859;53.906;27.430;2023-12-04T13:26:58;13;9;8
74426;PMS7003;62859;53.906;27.430;2023-12-04T13:31:52;10;9;7.3
74426;PMS7003;62859;53.906;27.430;2023-12-04T13:36:40;9.8;8;5.5
74426;PMS7003;62859;53.906;27.430;2023-12-04T13:41:56;11.3;10.7;7.7
74426;PMS7003;62859;53.906;27.430;2023-12-04T13:46:42;11.7;9.3;8.3
74426;PMS7003;62859;53.906;27.430;2023-12-04T13:51:18;12;11.3;9
74426;PMS7003;62859;53.906;27.430;2023-12-04T13:56:58;12.8;11;9.5
74426;PMS7003;62859;53.906;27.430;2023-12-04T14:01:58;13;12;11
74426;PMS7003;62859;53.906;27.430;2023-12-04T14:06:28;10.7;9.7;8.7
74426;PMS7003;62859;53.906;27.430;2023-12-04T14:11:26;17.3;15.3;13.7
74426;PMS7003;62859;53.906;27.430;2023-12-04T14:16:18;18.8;17.3;15
74426;PMS7003;62859;53.906;27.430;2023-12-04T14:21:18;15.7;14.7;12.3
74426;PMS7003;62859;53.906;27.430;2023-12-04T14:26:18;15;14;12.3
74426;PMS7003;62859;53.906;27.430;2023-12-04T14:31:58;19.5;17.3;15.5
74426;PMS7003;62859;53.906;27.430;2023-12-04T14:36:56;15;13.7;11.7
74426;PMS7003;62859;53.906;27.430;2023-12-04T14:41:20;13.3;12.3;10.7
74426;PMS7003;62859;53.906;27.430;2023-12-04T14:46:50;14.7;14;12.7
74426;PMS7003;62859;53.906;27.430;2023-12-04T14:52:00;13.5;12.3;10.3
74426;PMS7003;62859;53.906;27.430;2023-12-04T14:56:58;16.7;16;12.7
74426;PMS7003;62859;53.906;27.430;2023-12-04T15:01:38;15.7;15;13
74426;PMS7003;62859;53.906;27.430;2023-12-04T15:06:24;18;16.3;14.3
74426;PMS7003;62859;53.906;27.430;2023-12-04T15:11:52;16;15.3;13.3
74426;PMS7003;62859;53.906;27.430;2023-12-04T15:16:20;16.3;16.3;15
74426;PMS7003;62859;53.906;27.430;2023-12-04T15:21:58;12.7;12;9.3
74426;PMS7003;62859;53.906;27.430;2023-12-04T15:26:26;22.7;21;18
74426;PMS7003;62859;53.906;27.430;2023-12-04T15:31:26;21.5;19.3;16.5
74426;PMS7003;62859;53.906;27.430;2023-12-04T15:36:58;22;21.7;18
74426;PMS7003;62859;53.906;27.430;2023-12-04T15:41:58;23.3;20.3;19
74426;PMS7003;62859;53.906;27.430;2023-12-04T15:46:18;18;15.3;12.3
74426;PMS7003;62859;53.906;27.430;2023-12-04T15:51:40;21.8;20.3;15.5
74426;PMS7003;62859;53.906;27.430;2023-12-04T15:56:18;11.7;11.3;7.3
74426;PMS7003;62859;53.906;27.430;2023-12-04T16:01:48;13.3;10.7;9
74426;PMS7003;62859;53.906;27.430;2023-12-04T16:06:18;13;11.7;9
74426;PMS7003;62859;53.906;27.430;2023-12-04T16:12:00;18.3;17.3;14.5
74426;PMS7003;62859;53.906;27.430;2023-12-04T16:16:26;13;10.7;9
74426;PMS7003;62859;53.906;27.430;2023-12-04T16:21:56;15;12.7;9.7
74426;PMS7003;62859;53.906;27.430;2023-12-04T16:26:56;12.8;11;9.8
74426;PMS7003;62859;53.906;27.430;2023-12-04T16:31:28;17;14;12
74426;PMS7003;62859;53.906;27.430;2023-12-04T16:36:20;14.3;14;11.7
74426;PMS7003;62859;53.906;27.430;2023-12-04T16:41:18;18;15.3;13
74426;PMS7003;62859;53.906;27.430;2023-12-04T16:46:56;19.8;17.3;14
74426;PMS7003;62859;53.906;27.430;2023-12-04T16:51:40;14;12;9
74426;PMS7003;62859;53.906;27.430;2023-12-04T16:56:56;15.3;13.3;10
74426;PMS7003;62859;53.906;27.430;2023-12-04T17:01:28;12.7;11.7;8.7
74426;PMS7003;62859;53.906;27.430;2023-12-04T17:06:34;9.8;7.5;5.5
74426;PMS7003;62859;53.906;27.430;2023-12-04T17:11:58;7.3;6.3;5
74426;PMS7003;62859;53.906;27.430;2023-12-04T17:16:50;54.3;45.3;30
74426;PMS7003;62859;53.906;27.430;2023-12-04T17:21:44;91;79;48
74426;PMS7003;62859;53.906;27.430;2023-12-04T17:26:26;12.5;12.3;8.3
74426;PMS7003;62859;53.906;27.430;2023-12-04T17:31:46;7.7;6.3;5
74426;PMS7003;62859;53.906;27.430;2023-12-04T17:36:40;6.3;6;4.3
74426;PMS7003;62859;53.906;27.430;2023-12-04T17:41:34;6.3;6;4.3
74426;PMS7003;62859;53.906;27.430;2023-12-04T17:46:16;8.5;6.3;4
74426;PMS7003;62859;53.906;27.430;2023-12-04T17:51:30;8.3;6.7;4.3
74426;PMS7003;62859;53.906;27.430;2023-12-04T17:56:24;7.7;7.3;5
74426;PMS7003;62859;53.906;27.430;2023-12-04T18:01:54;6.7;5;4
74426;PMS7003;62859;53.906;27.430;2023-12-04T18:06:56;10.3;7;4.5
74426;PMS7003;62859;53.906;27.430;2023-12-04T18:11:28;7.3;6.3;5
74426;PMS7003;62859;53.906;27.430;2023-12-04T18:16:20;6.7;5.7;3.7
74426;PMS7003;62859;53.906;27.430;2023-12-04T18:21:18;7.8;6.3;4.3
74426;PMS7003;62859;53.906;27.430;2023-12-04T18:26:46;6.7;5.3;4.3
74426;PMS7003;62859;53.906;27.430;2023-12-04T18:31:43;8;6;3.7
74426;PMS7003;62859;53.906;27.430;2023-12-04T18:36:41;6.3;6;3.7
74426;PMS7003;62859;53.906;27.430;2023-12-04T18:41:30;7.3;6.3;3.8
74426;PMS7003;62859;53.906;27.430;2023-12-04T18:46:42;8.7;6.3;4
74426;PMS7003;62859;53.906;27.430;2023-12-04T18:51:58;7.3;6;4
74426;PMS7003;62859;53.906;27.430;2023-12-04T18:56:20;7.7;7.3;5.7
74426;PMS7003;62859;53.906;27.430;2023-12-04T19:01:44;6.3;5.8;4.5
74426;PMS7003;62859;53.906;27.430;2023-12-04T19:06:18;7;6;4.3
74426;PMS7003;62859;53.906;27.430;2023-12-04T19:11:54;8;6.7;4.3
74426;PMS7003;62859;53.906;27.430;2023-12-04T19:16:40;10;7;4
74426;PMS7003;62859;53.906;27.430;2023-12-04T19:21:28;19.3;18.5;11.8
74426;PMS7003;62859;53.906;27.430;2023-12-04T19:26:28;6.7;5;4
74426;PMS7003;62859;53.906;27.430;2023-12-04T19:31:44;8.7;7;4.3
74426;PMS7003;62859;53.906;27.430;2023-12-04T19:36:28;9;6;4.3
74426;PMS7003;62859;53.906;27.430;2023-12-04T19:41:54;6;5;3.3
74426;PMS7003;62859;53.906;27.430;2023-12-04T19:46:58;8.7;6.3;5
74426;PMS7003;62859;53.906;27.430;2023-12-04T19:51:46;7;6;3
74426;PMS7003;62859;53.906;27.430;2023-12-04T19:56:16;6.7;6.7;5.7
74426;PMS7003;62859;53.906;27.430;2023-12-04T20:01:34;13.8;8.5;5.5
74426;PMS7003;62859;53.906;27.430;2023-12-04T20:06:54;9.3;7.7;5
74426;PMS7003;62859;53.906;27.430;2023-12-04T20:11:40;10.3;8.7;5.7
74426;PMS7003;62859;53.906;27.430;2023-12-04T20:16:56;9.8;6.8;5
74426;PMS7003;62859;53.906;27.430;2023-12-04T20:21:36;11;8;5
74426;PMS7003;62859;53.906;27.430;2023-12-04T20:26:46;11;8;5.3
74426;PMS7003;62859;53.906;27.430;2023-12-04T20:31:56;11;8.7;6.3
74426;PMS7003;62859;53.906;27.430;2023-12-04T20:36:38;9;6.8;4.5
74426;PMS7003;62859;53.906;27.430;2023-12-04T20:41:46;9.3;8;5.7
74426;PMS7003;62859;53.906;27.430;2023-12-04T20:46:34;10.3;8.7;6.7
74426;PMS7003;62859;53.906;27.430;2023-12-04T20:51:56;10.7;9.7;6.3
74426;PMS7003;62859;53.906;27.430;2023-12-04T20:56:26;8.3;7.5;5
74426;PMS7003;62859;53.906;27.430;2023-12-04T21:01:36;9.3;8;5.3
74426;PMS7003;62859;53.906;27.430;2023-12-04T21:06:18;13.7;11.3;7.7
74426;PMS7003;62859;53.906;27.430;2023-12-04T21:11:18;12.3;10;7.7
74426;PMS7003;62859;53.906;27.430;2023-12-04T21:16:18;10.8;9.5;5.8
74426;PMS7003;62859;53.906;27.430;2023-12-04T21:21:54;12.7;10.7;6.3
74426;PMS7003;62859;53.906;27.430;2023-12-04T21:26:54;12;9.3;5.7
74426;PMS7003;62859;53.906;27.430;2023-12-04T21:31:46;12.3;11.3;7.7
74426;PMS7003;62859;53.906;27.430;2023-12-04T21:36:46;10.3;8.5;6.3
74426;PMS7003;62859;53.906;27.430;2023-12-04T21:41:58;13;10.3;5.7
74426;PMS7003;62859;53.906;27.430;2023-12-04T21:46:54;11.3;9.3;6.3
74426;PMS7003;62859;53.906;27.430;2023-12-04T21:51:40;12.7;11.7;7.7
74426;PMS7003;62859;53.906;27.430;2023-12-04T21:56:40;13.8;11.3;6.8
74426;PMS7003;62859;53.906;27.430;2023-12-04T22:01:36;13.7;10;6.3
74426;PMS7003;62859;53.906;27.430;2023-12-04T22:06:36;13.7;11.3;7.7
74426;PMS7003;62859;53.906;27.430;2023-12-04T22:11:58;10.3;7.8;5.3
74426;PMS7003;62859;53.906;27.430;2023-12-04T22:16:46;12.3;10.3;6.7
74426;PMS7003;62859;53.906;27.430;2023-12-04T22:21:42;10.7;8;5.7
74426;PMS7003;62859;53.906;27.430;2023-12-04T22:26:18;12.3;10.7;7.7
74426;PMS7003;62859;53.906;27.430;2023-12-04T22:31:40;12.8;11.5;7.8
74426;PMS7003;62859;53.906;27.430;2023-12-04T22:36:28;19;12;7.3
74426;PMS7003;62859;53.906;27.430;2023-12-04T22:41:26;15.3;14.3;7.3
74426;PMS7003;62859;53.906;27.430;2023-12-04T22:46:18;13.3;11.3;6.3
74426;PMS7003;62859;53.906;27.430;2023-12-04T22:51:44;13.8;11;7.5
74426;PMS7003;62859;53.906;27.430;2023-12-04T22:56:26;13.7;11.3;7
74426;PMS7003;62859;53.906;27.430;2023-12-04T23:01:58;16.3;13;8.3
74426;PMS7003;62859;53.906;27.430;2023-12-04T23:06:40;13.7;12.3;7.7
74426;PMS7003;62859;53.906;27.430;2023-12-04T23:11:28;14.3;12.3;8.3
74426;PMS7003;62859;53.906;27.430;2023-12-04T23:16:28;16;11.3;7
74426;PMS7003;62859;53.906;27.430;2023-12-04T23:21:20;11.3;11.3;7.3
74426;PMS7003;62859;53.906;27.430;2023-12-04T23:26:54;14.7;11;7
74426;PMS7003;62859;53.906;27.430;2023-12-04T23:31:28;14;11.8;7.8
74426;PMS7003;62859;53.906;27.430;2023-12-04T23:36:28;17.3;13.3;9
74426;PMS7003;62859;53.906;27.430;2023-12-04T23:41:52;12.7;11.3;7.7
74426;PMS7003;62859;53.906;27.430;2023-12-04T23:46:54;15;12.7;7.7
74426;PMS7003;62859;53.906;27.430;2023-12-04T23:51:58;13;11.5;7.3
74426;PMS7003;62859;53.906;27.430;2023-12-04T23:56:56;15;11;7.3
